Thunder radar more information blitzortung!


Radar de pluja more information rain snow radar


Visita la nostra xarxa de llocs de meteo:

Template documentation
and downloads

And another site



No particular awareness of the weather is required.    There are no Weather-warnings

Pagina Historial Weather Underground text

Diari Resum May 24, 2017 Unitats:  Tant    Imperial   Mètric
« Previous Dia
SegĂźent Dia »
Diari Setmana Mensual Anual Personalitzada
  Maxima: Minima: Media:
Temperatura: 90.1 °F /  32.3 °C 59.7 °F /  15.4 °C 79 °F /  26.1 °C
Punt de rosada: 59.4 °F /  15.2 °C 42.4 °F /  5.8 °C 49.6 °F /  9.8 °C
Humitat: 70 % 26 % 38 %
Wind Speed: 15 mph /  24.1 km/h - 5.3 mph /  8.5 km/h
RĂ fegues de vent: 15 mph /  24.1 km/h - -
Vent:- - SSW
Pression baro: 30.2 in /  1021.9 hPa 30 in /  1014.8 hPa -
Precipitacions: 0 in /  0.0 mm    
Historical Graphs
 
 
Dades de taula per May 24, 2017
Temps Temperatura Punt de rosada Pression baro Vent Wind Speed RĂ fegues de vent Humitat Rainfall Rate (Hourly)
00:02 66.2 °F /  19.0 °C 51.4 °F /  10.8 °C 30.1 in /  1019.9 hPa SW 2.3 mph /  3.7 km/h 2.3 mph /  3.7 km/h 59 % 0 in /  0.0 mm
00:05 61.9 °F /  16.6 °C 52 °F /  11.1 °C 30.1 in /  1019.9 hPa Calm     70 % 0 in /  0.0 mm
00:07 65.8 °F /  18.8 °C 51.6 °F /  10.9 °C 30.1 in /  1018.8 hPa SW 2.3 mph /  3.7 km/h 2.3 mph /  3.7 km/h 60 % 0 in /  0.0 mm
00:12 65.8 °F /  18.8 °C 51.6 °F /  10.9 °C 30.1 in /  1018.8 hPa WSW 2.3 mph /  3.7 km/h 2.3 mph /  3.7 km/h 60 % 0 in /  0.0 mm
00:15 61.9 °F /  16.6 °C 52 °F /  11.1 °C 30.1 in /  1019.9 hPa Calm     70 % 0 in /  0.0 mm
00:25 62.1 °F /  16.7 °C 52.2 °F /  11.2 °C 30.1 in /  1019.9 hPa Calm   1 mph /  1.6 km/h 70 % 0 in /  0.0 mm
00:35 61.9 °F /  16.6 °C 52 °F /  11.1 °C 30.1 in /  1019.9 hPa Calm     70 % 0 in /  0.0 mm
00:45 62.1 °F /  16.7 °C 51.8 °F /  11.0 °C 30.1 in /  1019.9 hPa North 1 mph /  1.6 km/h 2 mph /  3.2 km/h 69 % 0 in /  0.0 mm
00:55 61.7 °F /  16.5 °C 51.4 °F /  10.8 °C 30.1 in /  1019.9 hPa Calm     69 % 0 in /  0.0 mm
01:05 61.5 °F /  16.4 °C 51.3 °F /  10.7 °C 30.1 in /  1019.9 hPa Calm     69 % 0 in /  0.0 mm
01:15 61 °F /  16.1 °C 50.7 °F /  10.4 °C 30.2 in /  1020.9 hPa Calm   2 mph /  3.2 km/h 69 % 0 in /  0.0 mm
01:25 60.3 °F /  15.7 °C 50 °F /  10.0 °C 30.2 in /  1020.9 hPa SSW 1 mph /  1.6 km/h 1 mph /  1.6 km/h 69 % 0 in /  0.0 mm
01:35 60.1 °F /  15.6 °C 49.8 °F /  9.9 °C 30.2 in /  1020.9 hPa SW 1 mph /  1.6 km/h 2 mph /  3.2 km/h 69 % 0 in /  0.0 mm
01:45 59.7 °F /  15.4 °C 49.5 °F /  9.7 °C 30.2 in /  1020.9 hPa SW 2 mph /  3.2 km/h 3 mph /  4.8 km/h 69 % 0 in /  0.0 mm
01:55 59.7 °F /  15.4 °C 49.5 °F /  9.7 °C 30.2 in /  1020.9 hPa SW 2 mph /  3.2 km/h 3 mph /  4.8 km/h 69 % 0 in /  0.0 mm
02:05 60.1 °F /  15.6 °C 49.8 °F /  9.9 °C 30.2 in /  1020.9 hPa Calm   2 mph /  3.2 km/h 69 % 0 in /  0.0 mm
02:15 60.8 °F /  16.0 °C 50.5 °F /  10.3 °C 30.2 in /  1020.9 hPa WSW 1 mph /  1.6 km/h 2 mph /  3.2 km/h 69 % 0 in /  0.0 mm
02:25 61.5 °F /  16.4 °C 51.3 °F /  10.7 °C 30.2 in /  1020.9 hPa Calm   2 mph /  3.2 km/h 69 % 0 in /  0.0 mm
02:35 63.3 °F /  17.4 °C 52.5 °F /  11.4 °C 30.2 in /  1020.9 hPa Calm     68 % 0 in /  0.0 mm
02:45 64.4 °F /  18.0 °C 52.9 °F /  11.6 °C 30.2 in /  1020.9 hPa Calm     66 % 0 in /  0.0 mm
02:55 64.2 °F /  17.9 °C 52.2 °F /  11.2 °C 30.2 in /  1021.9 hPa West 1 mph /  1.6 km/h 2 mph /  3.2 km/h 65 % 0 in /  0.0 mm
03:05 64.6 °F /  18.1 °C 52.2 °F /  11.2 °C 30.2 in /  1021.9 hPa SW 1 mph /  1.6 km/h 2 mph /  3.2 km/h 64 % 0 in /  0.0 mm
03:15 65.3 °F /  18.5 °C 52.9 °F /  11.6 °C 30.2 in /  1020.9 hPa SW 1 mph /  1.6 km/h 2 mph /  3.2 km/h 64 % 0 in /  0.0 mm
03:25 66.2 °F /  19.0 °C 52.9 °F /  11.6 °C 30.2 in /  1021.9 hPa SW 2 mph /  3.2 km/h 2 mph /  3.2 km/h 62 % 0 in /  0.0 mm
03:35 66.7 °F /  19.3 °C 53.2 °F /  11.8 °C 30.2 in /  1021.9 hPa SW 1 mph /  1.6 km/h 2 mph /  3.2 km/h 62 % 0 in /  0.0 mm
03:45 67.5 °F /  19.7 °C 54 °F /  12.2 °C 30.2 in /  1020.9 hPa SW 1 mph /  1.6 km/h 2 mph /  3.2 km/h 62 % 0 in /  0.0 mm
03:55 68 °F /  20.0 °C 53.6 °F /  12.0 °C 30.2 in /  1021.9 hPa SW 1 mph /  1.6 km/h 2 mph /  3.2 km/h 60 % 0 in /  0.0 mm
04:05 69.8 °F /  21.0 °C 54.9 °F /  12.7 °C 30.2 in /  1021.9 hPa SSW 1 mph /  1.6 km/h 3 mph /  4.8 km/h 59 % 0 in /  0.0 mm
04:15 71.1 °F /  21.7 °C 55.6 °F /  13.1 °C 30.2 in /  1021.9 hPa NE 1 mph /  1.6 km/h 2 mph /  3.2 km/h 58 % 0 in /  0.0 mm
04:25 72 °F /  22.2 °C 55.9 °F /  13.3 °C 30.2 in /  1021.9 hPa Calm   4 mph /  6.4 km/h 57 % 0 in /  0.0 mm
04:35 72.7 °F /  22.6 °C 56.1 °F /  13.4 °C 30.2 in /  1021.9 hPa Calm   2 mph /  3.2 km/h 56 % 0 in /  0.0 mm
04:45 73.6 °F /  23.1 °C 56.5 °F /  13.6 °C 30.2 in /  1020.9 hPa ENE 2 mph /  3.2 km/h 3 mph /  4.8 km/h 55 % 0 in /  0.0 mm
04:55 74.3 °F /  23.5 °C 56.1 °F /  13.4 °C 30.2 in /  1021.9 hPa East 1 mph /  1.6 km/h 3 mph /  4.8 km/h 53 % 0 in /  0.0 mm
05:05 74.8 °F /  23.8 °C 55.9 °F /  13.3 °C 30.2 in /  1021.9 hPa ESE 1 mph /  1.6 km/h 2 mph /  3.2 km/h 52 % 0 in /  0.0 mm
05:15 76.6 °F /  24.8 °C 57.7 °F /  14.3 °C 30.2 in /  1021.9 hPa East 1 mph /  1.6 km/h 2 mph /  3.2 km/h 52 % 0 in /  0.0 mm
05:25 77 °F /  25.0 °C 56.8 °F /  13.8 °C 30.2 in /  1021.9 hPa ENE 2 mph /  3.2 km/h 3 mph /  4.8 km/h 50 % 0 in /  0.0 mm
05:35 77.9 °F /  25.5 °C 57.7 °F /  14.3 °C 30.2 in /  1021.9 hPa East 1 mph /  1.6 km/h 3 mph /  4.8 km/h 50 % 0 in /  0.0 mm
05:45 79 °F /  26.1 °C 58.3 °F /  14.6 °C 30.2 in /  1021.9 hPa East 1 mph /  1.6 km/h 2 mph /  3.2 km/h 49 % 0 in /  0.0 mm
10:52 79 °F /  26.1 °C 57.6 °F /  14.2 °C 30.2 in /  1021.9 hPa ENE 3.5 mph /  5.6 km/h 3.5 mph /  5.6 km/h 48 % 0 in /  0.0 mm
10:57 79.5 °F /  26.4 °C 58.1 °F /  14.5 °C 30.2 in /  1021.9 hPa SE 2.4 mph /  3.9 km/h 2.4 mph /  3.9 km/h 48 % 0 in /  0.0 mm
11:02 80.4 °F /  26.9 °C 58.8 °F /  14.9 °C 30.2 in /  1021.9 hPa SW 2.3 mph /  3.7 km/h 2.3 mph /  3.7 km/h 48 % 0 in /  0.0 mm
11:07 81 °F /  27.2 °C 58.3 °F /  14.6 °C 30.2 in /  1020.9 hPa South 3.5 mph /  5.6 km/h 3.5 mph /  5.6 km/h 46 % 0 in /  0.0 mm
11:12 82.2 °F /  27.9 °C 59.4 °F /  15.2 °C 30.2 in /  1020.9 hPa WSW 3.5 mph /  5.6 km/h 3.5 mph /  5.6 km/h 46 % 0 in /  0.0 mm
11:17 82.8 °F /  28.2 °C 59.4 °F /  15.2 °C 30.2 in /  1020.9 hPa ESE 2.3 mph /  3.7 km/h 2.3 mph /  3.7 km/h 45 % 0 in /  0.0 mm
11:22 83.1 °F /  28.4 °C 58.8 °F /  14.9 °C 30.1 in /  1019.9 hPa ESE 2.3 mph /  3.7 km/h 2.3 mph /  3.7 km/h 44 % 0 in /  0.0 mm
11:27 82.6 °F /  28.1 °C 58.5 °F /  14.7 °C 30.1 in /  1019.9 hPa West 2.3 mph /  3.7 km/h 2.3 mph /  3.7 km/h 44 % 0 in /  0.0 mm
11:32 82 °F /  27.8 °C 57.4 °F /  14.1 °C 30.1 in /  1019.9 hPa WSW 4.6 mph /  7.4 km/h 4.6 mph /  7.4 km/h 43 % 0 in /  0.0 mm
11:37 82.8 °F /  28.2 °C 57.4 °F /  14.1 °C 30.1 in /  1019.9 hPa ENE 2.3 mph /  3.7 km/h 2.3 mph /  3.7 km/h 42 % 0 in /  0.0 mm
11:42 82.8 °F /  28.2 °C 57.4 °F /  14.1 °C 30.1 in /  1019.9 hPa SW 3.5 mph /  5.6 km/h 3.5 mph /  5.6 km/h 42 % 0 in /  0.0 mm
11:47 84.4 °F /  29.1 °C 58.1 °F /  14.5 °C 30.1 in /  1019.9 hPa SSW 3.5 mph /  5.6 km/h 3.5 mph /  5.6 km/h 41 % 0 in /  0.0 mm
11:52 84.9 °F /  29.4 °C 56.5 °F /  13.6 °C 30.1 in /  1018.8 hPa NE 5.8 mph /  9.3 km/h 5.8 mph /  9.3 km/h 38 % 0 in /  0.0 mm
11:57 83.7 °F /  28.7 °C 56.1 °F /  13.4 °C 30.1 in /  1018.8 hPa South 2.4 mph /  3.9 km/h 2.4 mph /  3.9 km/h 39 % 0 in /  0.0 mm
12:02 84.9 °F /  29.4 °C 56.5 °F /  13.6 °C 30.1 in /  1018.8 hPa ENE 2.3 mph /  3.7 km/h   38 % 0 in /  0.0 mm
12:07 85.1 °F /  29.5 °C 56.7 °F /  13.7 °C 30.1 in /  1018.8 hPa West 2.3 mph /  3.7 km/h 2.3 mph /  3.7 km/h 38 % 0 in /  0.0 mm
12:12 85.1 °F /  29.5 °C 55 °F /  12.8 °C 30.1 in /  1018.8 hPa ENE 3.5 mph /  5.6 km/h 3.5 mph /  5.6 km/h 36 % 0 in /  0.0 mm
12:17 85.8 °F /  29.9 °C 57.4 °F /  14.1 °C 30.1 in /  1018.8 hPa ESE 2.3 mph /  3.7 km/h 2.3 mph /  3.7 km/h 38 % 0 in /  0.0 mm
12:22 86.2 °F /  30.1 °C 57.6 °F /  14.2 °C 30.1 in /  1018.8 hPa West 4.6 mph /  7.4 km/h 4.6 mph /  7.4 km/h 38 % 0 in /  0.0 mm
12:27 86.2 °F /  30.1 °C 56.8 °F /  13.8 °C 30.1 in /  1018.8 hPa WSW 5.8 mph /  9.3 km/h 5.8 mph /  9.3 km/h 37 % 0 in /  0.0 mm
12:32 86.4 °F /  30.2 °C 56.3 °F /  13.5 °C 30.1 in /  1018.8 hPa SSW 3.5 mph /  5.6 km/h 3.5 mph /  5.6 km/h 36 % 0 in /  0.0 mm
12:37 88 °F /  31.1 °C 57.7 °F /  14.3 °C 30.1 in /  1017.8 hPa SW 4.6 mph /  7.4 km/h 4.6 mph /  7.4 km/h 36 % 0 in /  0.0 mm
12:42 88 °F /  31.1 °C 57.7 °F /  14.3 °C 30.1 in /  1017.8 hPa SW 2.6 mph /  4.2 km/h 2.6 mph /  4.2 km/h 36 % 0 in /  0.0 mm
12:47 88.5 °F /  31.4 °C 57.4 °F /  14.1 °C 30.1 in /  1017.8 hPa SW 4.6 mph /  7.4 km/h 4.6 mph /  7.4 km/h 35 % 0 in /  0.0 mm
12:52 87.8 °F /  31.0 °C 55.9 °F /  13.3 °C 30.1 in /  1017.8 hPa West 4.6 mph /  7.4 km/h 4.6 mph /  7.4 km/h 34 % 0 in /  0.0 mm
12:57 88.5 °F /  31.4 °C 56.7 °F /  13.7 °C 30.1 in /  1017.8 hPa South 3.5 mph /  5.6 km/h 3.5 mph /  5.6 km/h 34 % 0 in /  0.0 mm
13:02 88.3 °F /  31.3 °C 55.6 °F /  13.1 °C 30.1 in /  1017.8 hPa South 4.6 mph /  7.4 km/h 4.6 mph /  7.4 km/h 33 % 0 in /  0.0 mm
13:07 89.1 °F /  31.7 °C 56.1 °F /  13.4 °C 30.1 in /  1017.8 hPa NE 2.3 mph /  3.7 km/h 2.3 mph /  3.7 km/h 33 % 0 in /  0.0 mm
13:12 87.6 °F /  30.9 °C 55 °F /  12.8 °C 30.1 in /  1017.8 hPa SSE 3.3 mph /  5.3 km/h 3.3 mph /  5.3 km/h 33 % 0 in /  0.0 mm
13:17 87.8 °F /  31.0 °C 54.3 °F /  12.4 °C 30.1 in /  1017.8 hPa SSE 3.5 mph /  5.6 km/h 3.5 mph /  5.6 km/h 32 % 0 in /  0.0 mm
13:22 88.5 °F /  31.4 °C 55.8 °F /  13.2 °C 30.1 in /  1017.8 hPa WSW 4.6 mph /  7.4 km/h 4.6 mph /  7.4 km/h 33 % 0 in /  0.0 mm
13:27 88.2 °F /  31.2 °C 54.7 °F /  12.6 °C 30.1 in /  1017.8 hPa West 6.9 mph /  11.1 km/h 6.9 mph /  11.1 km/h 32 % 0 in /  0.0 mm
13:32 86.5 °F /  30.3 °C 53.2 °F /  11.8 °C 30.1 in /  1017.8 hPa ESE 5.8 mph /  9.3 km/h 5.8 mph /  9.3 km/h 32 % 0 in /  0.0 mm
13:37 86.7 °F /  30.4 °C 53.2 °F /  11.8 °C 30.1 in /  1017.8 hPa NE 2.9 mph /  4.7 km/h 2.9 mph /  4.7 km/h 32 % 0 in /  0.0 mm
13:38 86.5 °F /  30.3 °C 53.2 °F /  11.8 °C 30.1 in /  1017.8 hPa ENE 2.4 mph /  3.9 km/h 2.4 mph /  3.9 km/h 32 % 0 in /  0.0 mm
13:43 87.6 °F /  30.9 °C 54.1 °F /  12.3 °C 30.1 in /  1017.8 hPa SW 3.5 mph /  5.6 km/h 3.5 mph /  5.6 km/h 32 % 0 in /  0.0 mm
13:48 88 °F /  31.1 °C 53.6 °F /  12.0 °C 30.1 in /  1017.8 hPa SSE 2.3 mph /  3.7 km/h 2.3 mph /  3.7 km/h 31 % 0 in /  0.0 mm
13:53 88.2 °F /  31.2 °C 54.7 °F /  12.6 °C 30.1 in /  1017.8 hPa SSE 3.5 mph /  5.6 km/h 3.5 mph /  5.6 km/h 32 % 0 in /  0.0 mm
13:58 88.7 °F /  31.5 °C 54.1 °F /  12.3 °C 30.1 in /  1017.8 hPa SSW 4.6 mph /  7.4 km/h 4.6 mph /  7.4 km/h 31 % 0 in /  0.0 mm
14:03 89.1 °F /  31.7 °C 53.6 °F /  12.0 °C 30.1 in /  1017.8 hPa SSE 2.3 mph /  3.7 km/h 2.3 mph /  3.7 km/h 30 % 0 in /  0.0 mm
14:08 88.2 °F /  31.2 °C 52.9 °F /  11.6 °C 30.1 in /  1017.8 hPa SSW 4.6 mph /  7.4 km/h 4.6 mph /  7.4 km/h 30 % 0 in /  0.0 mm
14:13 88.9 °F /  31.6 °C 54.3 °F /  12.4 °C 30.1 in /  1017.8 hPa SW 5.8 mph /  9.3 km/h 5.8 mph /  9.3 km/h 31 % 0 in /  0.0 mm
14:18 89.2 °F /  31.8 °C 54.7 °F /  12.6 °C 30.1 in /  1017.8 hPa North 4.6 mph /  7.4 km/h 4.6 mph /  7.4 km/h 31 % 0 in /  0.0 mm
14:23 90.1 °F /  32.3 °C 54.5 °F /  12.5 °C 30.1 in /  1017.8 hPa West 3.8 mph /  6.1 km/h 3.8 mph /  6.1 km/h 30 % 0 in /  0.0 mm
14:28 89.6 °F /  32.0 °C 54.1 °F /  12.3 °C 30.1 in /  1017.8 hPa West 10.4 mph /  16.7 km/h 10.4 mph /  16.7 km/h 30 % 0 in /  0.0 mm
14:33 89.6 °F /  32.0 °C 53.1 °F /  11.7 °C 30.1 in /  1017.8 hPa SSW 9.2 mph /  14.8 km/h 9.2 mph /  14.8 km/h 29 % 0 in /  0.0 mm
14:38 89.6 °F /  32.0 °C 53.1 °F /  11.7 °C 30.1 in /  1018.8 hPa South 10.5 mph /  16.9 km/h 10.5 mph /  16.9 km/h 29 % 0 in /  0.0 mm
14:43 89.8 °F /  32.1 °C 53.2 °F /  11.8 °C 30.1 in /  1018.8 hPa South 8.1 mph /  13.0 km/h 8.1 mph /  13.0 km/h 29 % 0 in /  0.0 mm
14:48 89.2 °F /  31.8 °C 52.9 °F /  11.6 °C 30.1 in /  1018.8 hPa SW 5.8 mph /  9.3 km/h 5.8 mph /  9.3 km/h 29 % 0 in /  0.0 mm
14:53 88.3 °F /  31.3 °C 51.1 °F /  10.6 °C 30.1 in /  1017.8 hPa SW 11.5 mph /  18.5 km/h 11.5 mph /  18.5 km/h 28 % 0 in /  0.0 mm
14:58 88.2 °F /  31.2 °C 50.9 °F /  10.5 °C 30.1 in /  1017.8 hPa SSW 9.2 mph /  14.8 km/h 9.2 mph /  14.8 km/h 28 % 0 in /  0.0 mm
15:03 88.7 °F /  31.5 °C 51.4 °F /  10.8 °C 30.1 in /  1017.8 hPa WSW 8.1 mph /  13.0 km/h 8.1 mph /  13.0 km/h 28 % 0 in /  0.0 mm
15:08 88.2 °F /  31.2 °C 50.9 °F /  10.5 °C 30.1 in /  1017.8 hPa SSW 5.8 mph /  9.3 km/h 5.8 mph /  9.3 km/h 28 % 0 in /  0.0 mm
15:13 87.1 °F /  30.6 °C 48.9 °F /  9.4 °C 30.1 in /  1017.8 hPa South 12.1 mph /  19.5 km/h 12.1 mph /  19.5 km/h 27 % 0 in /  0.0 mm
15:18 86.9 °F /  30.5 °C 48.9 °F /  9.4 °C 30.1 in /  1017.8 hPa SW 12.7 mph /  20.4 km/h 12.7 mph /  20.4 km/h 27 % 0 in /  0.0 mm
15:23 86.9 °F /  30.5 °C 48.9 °F /  9.4 °C 30 in /  1016.8 hPa SW 8.1 mph /  13.0 km/h 8.1 mph /  13.0 km/h 27 % 0 in /  0.0 mm
15:28 86.2 °F /  30.1 °C 48.4 °F /  9.1 °C 30 in /  1016.8 hPa SW 15 mph /  24.1 km/h 15 mph /  24.1 km/h 27 % 0 in /  0.0 mm
15:33 86.5 °F /  30.3 °C 48.6 °F /  9.2 °C 30 in /  1016.8 hPa South 10.4 mph /  16.7 km/h 10.4 mph /  16.7 km/h 27 % 0 in /  0.0 mm
15:38 86 °F /  30.0 °C 47.1 °F /  8.4 °C 30.1 in /  1017.8 hPa WSW 12.7 mph /  20.4 km/h 12.7 mph /  20.4 km/h 26 % 0 in /  0.0 mm
15:43 86 °F /  30.0 °C 48 °F /  8.9 °C 30.1 in /  1017.8 hPa South 12.7 mph /  20.4 km/h 12.7 mph /  20.4 km/h 27 % 0 in /  0.0 mm
15:48 86.2 °F /  30.1 °C 48.4 °F /  9.1 °C 30.1 in /  1017.8 hPa SW 12.7 mph /  20.4 km/h 12.7 mph /  20.4 km/h 27 % 0 in /  0.0 mm
15:53 86.4 °F /  30.2 °C 48.4 °F /  9.1 °C 30 in /  1016.8 hPa SSW 10.4 mph /  16.7 km/h 10.4 mph /  16.7 km/h 27 % 0 in /  0.0 mm
15:58 87.1 °F /  30.6 °C 48.9 °F /  9.4 °C 30 in /  1016.8 hPa SSW 3.6 mph /  5.8 km/h 3.6 mph /  5.8 km/h 27 % 0 in /  0.0 mm
16:03 87.1 °F /  30.6 °C 48.9 °F /  9.4 °C 30 in /  1016.8 hPa SW 8.1 mph /  13.0 km/h 8.1 mph /  13.0 km/h 27 % 0 in /  0.0 mm
16:08 86.5 °F /  30.3 °C 48.6 °F /  9.2 °C 30 in /  1016.8 hPa SW 12.7 mph /  20.4 km/h 12.7 mph /  20.4 km/h 27 % 0 in /  0.0 mm
16:13 86.5 °F /  30.3 °C 48.6 °F /  9.2 °C 30 in /  1016.8 hPa West 8.1 mph /  13.0 km/h 8.1 mph /  13.0 km/h 27 % 0 in /  0.0 mm
16:18 87.3 °F /  30.7 °C 49.3 °F /  9.6 °C 30 in /  1016.8 hPa WSW 10.5 mph /  16.9 km/h 10.5 mph /  16.9 km/h 27 % 0 in /  0.0 mm
16:23 87.6 °F /  30.9 °C 49.5 °F /  9.7 °C 30 in /  1015.8 hPa South 6.2 mph /  10.0 km/h 6.2 mph /  10.0 km/h 27 % 0 in /  0.0 mm
16:28 87.3 °F /  30.7 °C 49.3 °F /  9.6 °C 30 in /  1015.8 hPa WSW 8.1 mph /  13.0 km/h 8.1 mph /  13.0 km/h 27 % 0 in /  0.0 mm
16:33 87.8 °F /  31.0 °C 49.6 °F /  9.8 °C 30 in /  1015.8 hPa SW 4.6 mph /  7.4 km/h 4.6 mph /  7.4 km/h 27 % 0 in /  0.0 mm
16:38 87.3 °F /  30.7 °C 49.3 °F /  9.6 °C 30 in /  1015.8 hPa SSW 8.1 mph /  13.0 km/h 8.1 mph /  13.0 km/h 27 % 0 in /  0.0 mm
16:43 87.3 °F /  30.7 °C 49.3 °F /  9.6 °C 30 in /  1015.8 hPa SSW 10.7 mph /  17.2 km/h 10.7 mph /  17.2 km/h 27 % 0 in /  0.0 mm
16:48 86.9 °F /  30.5 °C 47.8 °F /  8.8 °C 30 in /  1015.8 hPa South 10.4 mph /  16.7 km/h 10.4 mph /  16.7 km/h 26 % 0 in /  0.0 mm
16:53 87.3 °F /  30.7 °C 49.3 °F /  9.6 °C 30 in /  1015.8 hPa WSW 5.8 mph /  9.3 km/h 5.8 mph /  9.3 km/h 27 % 0 in /  0.0 mm
16:58 86.5 °F /  30.3 °C 47.7 °F /  8.7 °C 30 in /  1015.8 hPa SW 9.2 mph /  14.8 km/h 9.2 mph /  14.8 km/h 26 % 0 in /  0.0 mm
17:03 86.5 °F /  30.3 °C 47.7 °F /  8.7 °C 30 in /  1015.8 hPa SSW 9.2 mph /  14.8 km/h 9.2 mph /  14.8 km/h 26 % 0 in /  0.0 mm
17:08 86.9 °F /  30.5 °C 47.8 °F /  8.8 °C 30 in /  1015.8 hPa SW 9.4 mph /  15.1 km/h 9.4 mph /  15.1 km/h 26 % 0 in /  0.0 mm
17:13 86.5 °F /  30.3 °C 47.7 °F /  8.7 °C 30 in /  1015.8 hPa SSW 9.2 mph /  14.8 km/h 9.2 mph /  14.8 km/h 26 % 0 in /  0.0 mm
17:18 86.7 °F /  30.4 °C 47.7 °F /  8.7 °C 30 in /  1015.8 hPa SSE 8.1 mph /  13.0 km/h 8.1 mph /  13.0 km/h 26 % 0 in /  0.0 mm
17:23 87.1 °F /  30.6 °C 48 °F /  8.9 °C 30 in /  1014.8 hPa WSW 5.8 mph /  9.3 km/h 5.8 mph /  9.3 km/h 26 % 0 in /  0.0 mm
17:28 86.4 °F /  30.2 °C 47.5 °F /  8.6 °C 30 in /  1014.8 hPa WSW 10.4 mph /  16.7 km/h 10.4 mph /  16.7 km/h 26 % 0 in /  0.0 mm
17:33 85.8 °F /  29.9 °C 48 °F /  8.9 °C 30 in /  1014.8 hPa ESE 7.8 mph /  12.6 km/h 7.8 mph /  12.6 km/h 27 % 0 in /  0.0 mm
17:39 86 °F /  30.0 °C 47.1 °F /  8.4 °C 30 in /  1015.8 hPa SW 10.4 mph /  16.7 km/h 10.4 mph /  16.7 km/h 26 % 0 in /  0.0 mm
17:44 85.5 °F /  29.7 °C 46.8 °F /  8.2 °C 30 in /  1015.8 hPa SSW 11.5 mph /  18.5 km/h 11.5 mph /  18.5 km/h 26 % 0 in /  0.0 mm
17:49 85.3 °F /  29.6 °C 46.6 °F /  8.1 °C 30 in /  1015.8 hPa SW 8.1 mph /  13.0 km/h 8.1 mph /  13.0 km/h 26 % 0 in /  0.0 mm
17:54 85.1 °F /  29.5 °C 47.5 °F /  8.6 °C 30 in /  1015.8 hPa WSW 5.8 mph /  9.3 km/h 5.8 mph /  9.3 km/h 27 % 0 in /  0.0 mm
17:59 85.1 °F /  29.5 °C 47.5 °F /  8.6 °C 30 in /  1015.8 hPa SW 10.4 mph /  16.7 km/h 10.4 mph /  16.7 km/h 27 % 0 in /  0.0 mm
18:00 85.3 °F /  29.6 °C 47.5 °F /  8.6 °C 30 in /  1015.8 hPa SSW 6.9 mph /  11.1 km/h 6.9 mph /  11.1 km/h 27 % 0 in /  0.0 mm
18:05 84.9 °F /  29.4 °C 47.1 °F /  8.4 °C 30 in /  1015.8 hPa SE 9.2 mph /  14.8 km/h 9.2 mph /  14.8 km/h 27 % 0 in /  0.0 mm
18:10 84.6 °F /  29.2 °C 46.9 °F /  8.3 °C 30 in /  1015.8 hPa West 9.2 mph /  14.8 km/h 9.2 mph /  14.8 km/h 27 % 0 in /  0.0 mm
18:15 84.2 °F /  29.0 °C 46.6 °F /  8.1 °C 30 in /  1015.8 hPa SSW 10.4 mph /  16.7 km/h 10.4 mph /  16.7 km/h 27 % 0 in /  0.0 mm
18:20 84 °F /  28.9 °C 47.5 °F /  8.6 °C 30 in /  1015.8 hPa WSW 13.8 mph /  22.2 km/h 13.8 mph /  22.2 km/h 28 % 0 in /  0.0 mm
18:25 83.1 °F /  28.4 °C 46.6 °F /  8.1 °C 30 in /  1015.8 hPa WSW 6.9 mph /  11.1 km/h 6.9 mph /  11.1 km/h 28 % 0 in /  0.0 mm
18:30 83.1 °F /  28.4 °C 46.6 °F /  8.1 °C 30 in /  1015.8 hPa South 5.8 mph /  9.3 km/h 5.8 mph /  9.3 km/h 28 % 0 in /  0.0 mm
18:35 82.9 °F /  28.3 °C 46.6 °F /  8.1 °C 30 in /  1015.8 hPa SW 9.7 mph /  15.6 km/h 9.7 mph /  15.6 km/h 28 % 0 in /  0.0 mm
18:40 82.8 °F /  28.2 °C 47.3 °F /  8.5 °C 30 in /  1015.8 hPa SW 6.9 mph /  11.1 km/h 6.9 mph /  11.1 km/h 29 % 0 in /  0.0 mm
18:45 82 °F /  27.8 °C 45.7 °F /  7.6 °C 30 in /  1015.8 hPa WSW 9.2 mph /  14.8 km/h 9.2 mph /  14.8 km/h 28 % 0 in /  0.0 mm
18:50 81.3 °F /  27.4 °C 45.1 °F /  7.3 °C 30 in /  1015.8 hPa SW 13.8 mph /  22.2 km/h 13.8 mph /  22.2 km/h 28 % 0 in /  0.0 mm
18:55 80.6 °F /  27.0 °C 44.4 °F /  6.9 °C 30 in /  1015.8 hPa South 12.7 mph /  20.4 km/h 12.7 mph /  20.4 km/h 28 % 0 in /  0.0 mm
19:00 80.8 °F /  27.1 °C 45.7 °F /  7.6 °C 30 in /  1015.8 hPa SW 9 mph /  14.5 km/h 9 mph /  14.5 km/h 29 % 0 in /  0.0 mm
19:05 80.4 °F /  26.9 °C 45.1 °F /  7.3 °C 30 in /  1015.8 hPa SSW 12.7 mph /  20.4 km/h 12.7 mph /  20.4 km/h 29 % 0 in /  0.0 mm
19:10 80.1 °F /  26.7 °C 44.1 °F /  6.7 °C 30 in /  1015.8 hPa SSW 9.2 mph /  14.8 km/h 9.2 mph /  14.8 km/h 28 % 0 in /  0.0 mm
19:15 80.1 °F /  26.7 °C 45 °F /  7.2 °C 30 in /  1015.8 hPa WSW 12.7 mph /  20.4 km/h 12.7 mph /  20.4 km/h 29 % 0 in /  0.0 mm
19:20 80.1 °F /  26.7 °C 45 °F /  7.2 °C 30 in /  1015.8 hPa SW 8.1 mph /  13.0 km/h 8.1 mph /  13.0 km/h 29 % 0 in /  0.0 mm
19:25 79.7 °F /  26.5 °C 44.6 °F /  7.0 °C 30 in /  1015.8 hPa WSW 10.4 mph /  16.7 km/h 10.4 mph /  16.7 km/h 29 % 0 in /  0.0 mm
19:30 79.7 °F /  26.5 °C 44.6 °F /  7.0 °C 30 in /  1015.8 hPa SW 11.5 mph /  18.5 km/h 11.5 mph /  18.5 km/h 29 % 0 in /  0.0 mm
19:35 79.3 °F /  26.3 °C 44.2 °F /  6.8 °C 30 in /  1015.8 hPa SW 8.5 mph /  13.7 km/h 8.5 mph /  13.7 km/h 29 % 0 in /  0.0 mm
19:40 79.3 °F /  26.3 °C 44.2 °F /  6.8 °C 30 in /  1015.8 hPa South 9.2 mph /  14.8 km/h 9.2 mph /  14.8 km/h 29 % 0 in /  0.0 mm
19:45 79.2 °F /  26.2 °C 44.2 °F /  6.8 °C 30 in /  1015.8 hPa SW 11.5 mph /  18.5 km/h 11.5 mph /  18.5 km/h 29 % 0 in /  0.0 mm
19:50 79 °F /  26.1 °C 44.1 °F /  6.7 °C 30 in /  1015.8 hPa SW 8.1 mph /  13.0 km/h 8.1 mph /  13.0 km/h 29 % 0 in /  0.0 mm
19:55 79 °F /  26.1 °C 44.1 °F /  6.7 °C 30 in /  1016.8 hPa WSW 8.1 mph /  13.0 km/h 8.1 mph /  13.0 km/h 29 % 0 in /  0.0 mm
20:00 78.6 °F /  25.9 °C 43.7 °F /  6.5 °C 30 in /  1016.8 hPa SSW 10.4 mph /  16.7 km/h 10.4 mph /  16.7 km/h 29 % 0 in /  0.0 mm
20:05 78.6 °F /  25.9 °C 43.7 °F /  6.5 °C 30 in /  1016.8 hPa SW 8.1 mph /  13.0 km/h 8.1 mph /  13.0 km/h 29 % 0 in /  0.0 mm
20:10 78.4 °F /  25.8 °C 44.4 °F /  6.9 °C 30 in /  1015.8 hPa South 6.9 mph /  11.1 km/h 6.9 mph /  11.1 km/h 30 % 0 in /  0.0 mm
20:15 78.3 °F /  25.7 °C 44.2 °F /  6.8 °C 30 in /  1015.8 hPa SW 9.2 mph /  14.8 km/h 9.2 mph /  14.8 km/h 30 % 0 in /  0.0 mm
20:20 78.1 °F /  25.6 °C 44.1 °F /  6.7 °C 30 in /  1015.8 hPa SSW 6.9 mph /  11.1 km/h 6.9 mph /  11.1 km/h 30 % 0 in /  0.0 mm
20:25 77.9 °F /  25.5 °C 44.1 °F /  6.7 °C 30 in /  1015.8 hPa SW 5.8 mph /  9.3 km/h 5.8 mph /  9.3 km/h 30 % 0 in /  0.0 mm
20:30 77.5 °F /  25.3 °C 43.5 °F /  6.4 °C 30 in /  1015.8 hPa SSW 9.2 mph /  14.8 km/h 9.2 mph /  14.8 km/h 30 % 0 in /  0.0 mm
20:35 77.4 °F /  25.2 °C 43.5 °F /  6.4 °C 30 in /  1015.8 hPa SW 6.9 mph /  11.1 km/h 6.9 mph /  11.1 km/h 30 % 0 in /  0.0 mm
20:40 77.2 °F /  25.1 °C 43.3 °F /  6.3 °C 30 in /  1015.8 hPa SW 5.4 mph /  8.7 km/h 5.4 mph /  8.7 km/h 30 % 0 in /  0.0 mm
20:45 77 °F /  25.0 °C 43.2 °F /  6.2 °C 30 in /  1015.8 hPa SSW 6.9 mph /  11.1 km/h 6.9 mph /  11.1 km/h 30 % 0 in /  0.0 mm
20:50 76.6 °F /  24.8 °C 43.7 °F /  6.5 °C 30 in /  1015.8 hPa WSW 5.8 mph /  9.3 km/h 5.8 mph /  9.3 km/h 31 % 0 in /  0.0 mm
20:55 76.5 °F /  24.7 °C 43.5 °F /  6.4 °C 30 in /  1015.8 hPa SSW 5.9 mph /  9.5 km/h 5.9 mph /  9.5 km/h 31 % 0 in /  0.0 mm
21:00 76.3 °F /  24.6 °C 43.3 °F /  6.3 °C 30 in /  1015.8 hPa SW 5.8 mph /  9.3 km/h 5.8 mph /  9.3 km/h 31 % 0 in /  0.0 mm
21:05 76.1 °F /  24.5 °C 43.3 °F /  6.3 °C 30 in /  1015.8 hPa SSW 4.6 mph /  7.4 km/h 4.6 mph /  7.4 km/h 31 % 0 in /  0.0 mm
21:10 75.7 °F /  24.3 °C 43.9 °F /  6.6 °C 30 in /  1015.8 hPa SW 5.4 mph /  8.7 km/h 5.4 mph /  8.7 km/h 32 % 0 in /  0.0 mm
21:15 75.6 °F /  24.2 °C 43.5 °F /  6.4 °C 30 in /  1015.8 hPa WSW 8.1 mph /  13.0 km/h 8.1 mph /  13.0 km/h 32 % 0 in /  0.0 mm
21:20 75.4 °F /  24.1 °C 43.5 °F /  6.4 °C 30 in /  1015.8 hPa SW 8.1 mph /  13.0 km/h 8.1 mph /  13.0 km/h 32 % 0 in /  0.0 mm
21:25 75 °F /  23.9 °C 43.2 °F /  6.2 °C 30 in /  1015.8 hPa SSW 8.5 mph /  13.7 km/h 8.5 mph /  13.7 km/h 32 % 0 in /  0.0 mm
21:30 74.8 °F /  23.8 °C 43 °F /  6.1 °C 30 in /  1015.8 hPa SSW 5.8 mph /  9.3 km/h 5.8 mph /  9.3 km/h 32 % 0 in /  0.0 mm
21:35 74.7 °F /  23.7 °C 42.8 °F /  6.0 °C 30 in /  1015.8 hPa SW 5.8 mph /  9.3 km/h 5.8 mph /  9.3 km/h 32 % 0 in /  0.0 mm
21:40 74.3 °F /  23.5 °C 42.4 °F /  5.8 °C 30 in /  1015.8 hPa SW 4.6 mph /  7.4 km/h 4.6 mph /  7.4 km/h 32 % 0 in /  0.0 mm
21:45 74.1 °F /  23.4 °C 43.2 °F /  6.2 °C 30 in /  1015.8 hPa SW 4.6 mph /  7.4 km/h 4.6 mph /  7.4 km/h 33 % 0 in /  0.0 mm
21:50 73.9 °F /  23.3 °C 43 °F /  6.1 °C 30 in /  1015.8 hPa WSW 3.5 mph /  5.6 km/h 3.5 mph /  5.6 km/h 33 % 0 in /  0.0 mm
21:55 73.6 °F /  23.1 °C 42.6 °F /  5.9 °C 30 in /  1015.8 hPa SW 3.5 mph /  5.6 km/h 3.5 mph /  5.6 km/h 33 % 0 in /  0.0 mm
22:00 73.4 °F /  23.0 °C 42.4 °F /  5.8 °C 30 in /  1015.8 hPa SW 2.3 mph /  3.7 km/h 2.3 mph /  3.7 km/h 33 % 0 in /  0.0 mm
22:05 73.2 °F /  22.9 °C 43.2 °F /  6.2 °C 30 in /  1015.8 hPa West 3.5 mph /  5.6 km/h 3.5 mph /  5.6 km/h 34 % 0 in /  0.0 mm
22:10 73 °F /  22.8 °C 43.9 °F /  6.6 °C 30 in /  1015.8 hPa WSW 1.2 mph /  1.9 km/h 1.2 mph /  1.9 km/h 35 % 0 in /  0.0 mm
22:15 72.9 °F /  22.7 °C 43.5 °F /  6.4 °C 30 in /  1015.8 hPa NW 2.3 mph /  3.7 km/h 2.3 mph /  3.7 km/h 35 % 0 in /  0.0 mm
22:20 72.9 °F /  22.7 °C 43.5 °F /  6.4 °C 30 in /  1015.8 hPa WSW 2.3 mph /  3.7 km/h 2.3 mph /  3.7 km/h 35 % 0 in /  0.0 mm
22:25 72.7 °F /  22.6 °C 44.2 °F /  6.8 °C 30 in /  1015.8 hPa WSW 1.2 mph /  1.9 km/h 1.2 mph /  1.9 km/h 36 % 0 in /  0.0 mm
22:30 72.5 °F /  22.5 °C 44.1 °F /  6.7 °C 30 in /  1015.8 hPa WSW 2.6 mph /  4.2 km/h 2.6 mph /  4.2 km/h 36 % 0 in /  0.0 mm
22:35 72.3 °F /  22.4 °C 43.9 °F /  6.6 °C 30 in /  1015.8 hPa West 2.4 mph /  3.9 km/h 2.4 mph /  3.9 km/h 36 % 0 in /  0.0 mm
22:40 72.1 °F /  22.3 °C 43.7 °F /  6.5 °C 30 in /  1016.8 hPa West 2.3 mph /  3.7 km/h 2.3 mph /  3.7 km/h 36 % 0 in /  0.0 mm
22:45 72.1 °F /  22.3 °C 43.7 °F /  6.5 °C 30 in /  1016.8 hPa West 3.5 mph /  5.6 km/h 3.5 mph /  5.6 km/h 36 % 0 in /  0.0 mm
22:50 72 °F /  22.2 °C 43.5 °F /  6.4 °C 30 in /  1016.8 hPa West 3.5 mph /  5.6 km/h 3.5 mph /  5.6 km/h 36 % 0 in /  0.0 mm
22:55 71.8 °F /  22.1 °C 43.3 °F /  6.3 °C 30 in /  1016.8 hPa WSW 3.1 mph /  5.0 km/h 3.1 mph /  5.0 km/h 36 % 0 in /  0.0 mm
23:00 71.6 °F /  22.0 °C 43.9 °F /  6.6 °C 30 in /  1016.8 hPa WSW 2.3 mph /  3.7 km/h 2.3 mph /  3.7 km/h 37 % 0 in /  0.0 mm
23:05 71.6 °F /  22.0 °C 43.9 °F /  6.6 °C 30 in /  1016.8 hPa West 4.6 mph /  7.4 km/h 4.6 mph /  7.4 km/h 37 % 0 in /  0.0 mm
23:10 71.4 °F /  21.9 °C 43.9 °F /  6.6 °C 30 in /  1016.8 hPa WSW 2.4 mph /  3.9 km/h 2.4 mph /  3.9 km/h 37 % 0 in /  0.0 mm
23:15 71.2 °F /  21.8 °C 43.5 °F /  6.4 °C 30 in /  1016.8 hPa SW 2.9 mph /  4.7 km/h 2.9 mph /  4.7 km/h 37 % 0 in /  0.0 mm
23:20 71.1 °F /  21.7 °C 43.5 °F /  6.4 °C 30 in /  1016.8 hPa SW 2.6 mph /  4.2 km/h 2.6 mph /  4.2 km/h 37 % 0 in /  0.0 mm
23:25 70.7 °F /  21.5 °C 43.9 °F /  6.6 °C 30 in /  1015.8 hPa SW 2.3 mph /  3.7 km/h 2.3 mph /  3.7 km/h 38 % 0 in /  0.0 mm
23:30 70.7 °F /  21.5 °C 43.9 °F /  6.6 °C 30 in /  1015.8 hPa WSW 2.6 mph /  4.2 km/h 2.6 mph /  4.2 km/h 38 % 0 in /  0.0 mm
23:35 70.7 °F /  21.5 °C 43.9 °F /  6.6 °C 30 in /  1015.8 hPa SW 2.3 mph /  3.7 km/h 2.3 mph /  3.7 km/h 38 % 0 in /  0.0 mm
23:40 70.5 °F /  21.4 °C 43.7 °F /  6.5 °C 30 in /  1015.8 hPa West 2.3 mph /  3.7 km/h 2.3 mph /  3.7 km/h 38 % 0 in /  0.0 mm
23:45 70.5 °F /  21.4 °C 44.4 °F /  6.9 °C 30 in /  1015.8 hPa West 2.3 mph /  3.7 km/h 2.3 mph /  3.7 km/h 39 % 0 in /  0.0 mm
23:55 70.2 °F /  21.2 °C 44.1 °F /  6.7 °C 30 in /  1016.8 hPa WSW 2.3 mph /  3.7 km/h 2.3 mph /  3.7 km/h 39 % 0 in /  0.0 mm
Meteo Sesrovires
Elogis d' Weather Underground - 3.5 mb

Guio original per  Jim McMurry - jmcmurry@mwt.net Adaptat per a la plantilla per  Wim van der Kuil - Leuven-Template.eu

Trobareu la nostra informacio del temps tambe a:

Weather Underground

AWEKAS